Time;durP1;ratioP1;P1;durP2;ratioP2;P2;SDS_P1;SDS_P2;PMS_P1;PMS_P2;Temp;Humidity;BMP_temperature;BMP_pressure;BME280_temperature;BME280_humidity;BME280_pressure;Samples;Min_cycle;Max_cycle;Signal;HPM_P1;HPM_P2
2022/07/30 00:01:11;;;;;;;4.37;3.73;;;18.50;99.90;;;;;;4986021;28;20950;-75
2022/07/30 00:03:59;;;;;;;4.50;3.90;;;18.50;99.90;;;;;;4985839;28;20441;-74
2022/07/30 00:06:49;;;;;;;4.50;3.87;;;18.50;99.90;;;;;;4992285;28;20579;-74
2022/07/30 00:09:37;;;;;;;5.27;4.10;;;18.50;99.90;;;;;;4984374;28;20510;-75
2022/07/30 00:12:26;;;;;;;4.17;3.73;;;18.50;99.90;;;;;;4990386;28;20485;-75
2022/07/30 00:15:15;;;;;;;3.77;3.40;;;18.50;99.90;;;;;;4985147;28;20973;-74
2022/07/30 00:18:04;;;;;;;3.93;3.60;;;18.50;99.90;;;;;;4991896;28;20618;-74
2022/07/30 00:20:52;;;;;;;5.37;3.77;;;18.50;99.90;;;;;;4985983;28;20556;-74
2022/07/30 00:23:43;;;;;;;5.20;4.10;;;18.50;99.90;;;;;;4991657;28;20481;-74
2022/07/30 00:26:49;;;;;;;5.87;3.90;;;18.50;99.90;;;;;;4975902;28;20930;-74
2022/07/30 00:29:37;;;;;;;4.27;3.87;;;18.50;99.90;;;;;;4986110;28;21017;-74
2022/07/30 00:32:33;;;;;;;6.53;4.53;;;18.50;99.90;;;;;;4983994;28;21048;-75
2022/07/30 00:35:21;;;;;;;7.90;4.20;;;18.50;99.90;;;;;;4984120;28;20466;-75
2022/07/30 00:38:09;;;;;;;4.10;3.70;;;18.50;99.90;;;;;;4985847;28;20560;-74
2022/07/30 00:40:58;;;;;;;7.40;3.83;;;18.40;99.90;;;;;;4979261;28;20469;-74
2022/07/30 00:43:46;;;;;;;7.73;3.83;;;18.50;99.90;;;;;;4980149;28;20465;-74
2022/07/30 00:46:34;;;;;;;4.20;3.77;;;18.40;99.90;;;;;;4987391;28;21108;-74
2022/07/30 00:49:24;;;;;;;4.87;3.83;;;18.40;99.90;;;;;;4987210;28;20459;-74
2022/07/30 00:52:13;;;;;;;7.20;4.43;;;18.30;99.90;;;;;;4987280;28;20465;-74
2022/07/30 00:55:04;;;;;;;5.43;4.43;;;18.30;99.90;;;;;;4985961;28;20551;-74
2022/07/30 00:57:52;;;;;;;4.60;4.20;;;18.30;99.90;;;;;;4989010;28;20963;-74
2022/07/30 01:00:41;;;;;;;5.07;3.67;;;18.30;99.90;;;;;;4989053;28;20976;-74
2022/07/30 01:03:29;;;;;;;4.23;3.70;;;18.40;99.90;;;;;;4985200;28;20464;-74
2022/07/30 01:06:19;;;;;;;5.40;4.07;;;18.30;99.90;;;;;;4984419;28;21056;-74
2022/07/30 01:09:08;;;;;;;4.33;3.93;;;18.30;99.90;;;;;;4978854;28;20457;-73
2022/07/30 01:11:56;;;;;;;4.73;4.20;;;18.30;99.90;;;;;;4983980;28;20553;-74
2022/07/30 01:14:44;;;;;;;6.37;4.13;;;18.30;99.90;;;;;;4986013;28;21084;-75
2022/07/30 01:17:34;;;;;;;5.10;3.67;;;18.30;99.90;;;;;;4986124;28;20907;-74
2022/07/30 01:20:26;;;;;;;4.90;4.40;;;18.30;99.90;;;;;;4987516;28;20514;-72
2022/07/30 01:23:24;;;;;;;4.43;4.13;;;18.30;99.90;;;;;;4985185;28;20917;-72
2022/07/30 01:26:18;;;;;;;4.47;4.00;;;18.20;99.90;;;;;;4984901;28;21088;-73
2022/07/30 01:29:09;;;;;;;4.00;3.70;;;18.20;99.90;;;;;;4985206;28;20544;-74
2022/07/30 01:31:58;;;;;;;4.37;3.97;;;18.20;99.90;;;;;;4981685;28;20447;-75
2022/07/30 01:34:48;;;;;;;3.90;3.60;;;18.20;99.90;;;;;;4982289;28;20505;-75
2022/07/30 01:37:38;;;;;;;4.30;3.90;;;18.20;99.90;;;;;;4980466;28;20518;-73
2022/07/30 01:40:27;;;;;;;4.57;4.10;;;18.20;99.90;;;;;;4985025;28;20604;-75
2022/07/30 01:43:18;;;;;;;4.50;4.17;;;18.20;99.90;;;;;;4990019;28;20537;-73
2022/07/30 01:46:09;;;;;;;4.17;3.87;;;18.10;99.90;;;;;;4985147;28;20512;-73
2022/07/30 01:48:59;;;;;;;4.13;3.60;;;18.10;99.90;;;;;;5074970;22;20985;-72
2022/07/30 01:51:49;;;;;;;6.10;4.20;;;18.00;99.90;;;;;;5070796;28;20535;-72
2022/07/30 01:54:38;;;;;;;6.63;4.90;;;18.10;99.90;;;;;;5069981;28;20530;-72
2022/07/30 01:57:27;;;;;;;4.77;4.07;;;18.00;99.90;;;;;;5074856;28;20571;-72
2022/07/30 02:00:17;;;;;;;4.43;4.03;;;18.00;99.90;;;;;;5080976;28;20925;-73
2022/07/30 02:03:07;;;;;;;4.90;4.50;;;18.00;99.90;;;;;;5093067;28;20500;-72
2022/07/30 02:06:00;;;;;;;5.00;4.60;;;18.00;99.90;;;;;;5094618;28;20458;-72
2022/07/30 02:08:53;;;;;;;4.50;4.20;;;18.00;99.90;;;;;;5088827;28;20563;-72
2022/07/30 02:14:54;;;;;;;4.53;4.13;;;17.90;99.90;;;;;;5092150;28;20456;-75
2022/07/30 02:17:50;;;;;;;3.97;3.67;;;17.90;99.90;;;;;;5090986;28;20487;-72
2022/07/30 02:20:42;;;;;;;4.57;4.17;;;17.90;99.90;;;;;;5093777;28;20452;-72
2022/07/30 02:23:35;;;;;;;4.87;4.47;;;17.90;99.90;;;;;;5090275;28;20482;-74
2022/07/30 02:26:26;;;;;;;4.97;4.30;;;17.90;99.90;;;;;;5087923;28;20812;-74
2022/07/30 02:29:17;;;;;;;4.90;4.13;;;17.90;99.90;;;;;;5083854;28;20467;-72
2022/07/30 02:32:09;;;;;;;4.33;3.93;;;17.90;99.90;;;;;;5090076;28;20462;-74
2022/07/30 02:35:09;;;;;;;5.27;4.60;;;17.90;99.90;;;;;;5088187;28;20578;-72
2022/07/30 02:37:58;;;;;;;5.20;4.60;;;17.90;99.90;;;;;;5086690;28;20473;-72
2022/07/30 02:40:48;;;;;;;5.30;4.53;;;17.90;99.90;;;;;;5083880;28;20893;-72
2022/07/30 02:43:37;;;;;;;4.67;4.23;;;17.90;99.90;;;;;;5095816;28;20876;-72
2022/07/30 02:46:26;;;;;;;4.90;4.47;;;17.90;99.90;;;;;;5091521;28;20460;-72
2022/07/30 02:49:16;;;;;;;4.50;4.10;;;17.90;99.90;;;;;;5088661;28;20467;-74
2022/07/30 02:52:11;;;;;;;5.77;4.23;;;17.90;99.90;;;;;;5088768;28;20982;-73
2022/07/30 02:55:00;;;;;;;5.40;4.50;;;17.90;99.90;;;;;;5087947;28;20997;-73
2022/07/30 02:57:51;;;;;;;4.40;4.03;;;17.90;99.90;;;;;;5078803;28;20513;-73
2022/07/30 03:00:40;;;;;;;5.07;4.67;;;17.90;99.90;;;;;;5092382;28;20488;-73
2022/07/30 03:03:29;;;;;;;4.20;3.90;;;17.90;99.90;;;;;;5090374;28;20463;-74
2022/07/30 03:06:19;;;;;;;4.10;3.70;;;17.90;99.90;;;;;;5094578;28;20506;-73
2022/07/30 03:09:10;;;;;;;4.77;4.37;;;17.90;99.90;;;;;;5091529;28;20469;-74
2022/07/30 03:12:02;;;;;;;5.70;4.43;;;17.90;99.90;;;;;;5093988;28;20505;-73
2022/07/30 03:14:51;;;;;;;4.20;3.90;;;17.90;99.90;;;;;;5096849;28;20572;-75
2022/07/30 03:17:43;;;;;;;4.93;4.30;;;17.80;99.90;;;;;;5102022;28;20507;-73
2022/07/30 03:20:35;;;;;;;4.50;4.10;;;17.90;99.90;;;;;;5091999;28;20513;-74
2022/07/30 03:23:25;;;;;;;4.30;4.00;;;17.90;99.90;;;;;;5085213;28;20604;-73
2022/07/30 03:26:16;;;;;;;4.47;4.03;;;17.90;99.90;;;;;;5085527;28;20458;-74
2022/07/30 03:29:05;;;;;;;4.40;4.03;;;17.80;99.90;;;;;;5090284;28;20657;-74
2022/07/30 03:31:53;;;;;;;4.90;4.50;;;17.80;99.90;;;;;;5088147;28;21233;-74
2022/07/30 03:34:43;;;;;;;5.37;4.47;;;17.80;99.90;;;;;;5081617;28;20477;-74
2022/07/30 03:37:35;;;;;;;4.60;4.20;;;17.80;99.90;;;;;;5095445;28;20509;-74
2022/07/30 03:40:24;;;;;;;4.73;4.43;;;17.80;99.90;;;;;;5096186;28;20974;-74
2022/07/30 03:43:14;;;;;;;4.80;4.37;;;17.80;99.90;;;;;;5093393;28;20450;-73
2022/07/30 03:46:22;;;;;;;4.70;4.30;;;17.80;99.90;;;;;;5089552;28;20448;-74
2022/07/30 03:49:11;;;;;;;4.27;3.97;;;17.80;99.90;;;;;;5085648;28;20476;-74
2022/07/30 03:52:01;;;;;;;6.07;4.50;;;17.80;99.90;;;;;;5088503;28;20467;-74
2022/07/30 03:54:49;;;;;;;6.10;4.50;;;17.70;99.90;;;;;;5088785;28;20560;-74
2022/07/30 03:57:38;;;;;;;4.77;4.07;;;17.70;99.90;;;;;;5091358;28;20498;-73
2022/07/30 04:00:28;;;;;;;4.00;3.70;;;17.70;99.90;;;;;;5099765;28;21007;-72
2022/07/30 04:03:25;;;;;;;6.50;4.63;;;17.70;99.90;;;;;;5077448;28;20546;-74
2022/07/30 04:06:13;;;;;;;4.43;4.10;;;17.70;99.90;;;;;;5096657;28;20913;-74
2022/07/30 04:09:01;;;;;;;4.23;3.63;;;17.70;99.90;;;;;;5090552;28;20535;-74
2022/07/30 04:11:50;;;;;;;5.23;4.73;;;17.70;99.90;;;;;;5097110;28;20475;-74
2022/07/30 04:14:40;;;;;;;5.80;4.60;;;17.70;99.90;;;;;;5090134;28;21108;-76
2022/07/30 04:17:38;;;;;;;6.30;4.43;;;17.70;99.90;;;;;;5092127;28;20461;-74
2022/07/30 04:20:30;;;;;;;4.43;4.03;;;17.70;99.90;;;;;;5089503;28;20449;-75
2022/07/30 04:23:19;;;;;;;4.40;3.80;;;17.70;99.90;;;;;;5090162;28;20947;-74
2022/07/30 04:26:08;;;;;;;4.60;4.20;;;17.70;99.90;;;;;;5089843;28;20478;-75
2022/07/30 04:28:56;;;;;;;5.30;3.90;;;17.70;99.90;;;;;;5096733;28;21062;-74
2022/07/30 04:31:44;;;;;;;4.33;3.77;;;17.70;99.90;;;;;;5088085;28;20494;-76
2022/07/30 04:34:34;;;;;;;4.80;4.40;;;17.70;99.90;;;;;;5084718;28;20480;-74
2022/07/30 04:37:25;;;;;;;4.70;4.17;;;17.70;99.90;;;;;;5097833;28;20547;-75
2022/07/30 04:40:13;;;;;;;5.00;4.60;;;17.70;99.90;;;;;;5088575;28;20491;-74
2022/07/30 04:43:01;;;;;;;6.80;4.50;;;17.70;99.90;;;;;;5088592;28;20592;-74
2022/07/30 04:45:50;;;;;;;4.77;4.00;;;17.70;99.90;;;;;;5097180;28;20448;-74
2022/07/30 04:48:38;;;;;;;4.77;4.33;;;17.70;99.90;;;;;;5094035;28;20609;-78
2022/07/30 04:51:31;;;;;;;4.90;4.07;;;17.70;99.90;;;;;;5087144;28;20592;-74
2022/07/30 04:54:21;;;;;;;5.67;4.13;;;17.70;99.90;;;;;;5092186;28;20522;-75
2022/07/30 04:57:10;;;;;;;4.53;4.17;;;17.70;99.90;;;;;;5095099;28;20680;-75
2022/07/30 04:59:59;;;;;;;4.77;4.27;;;17.60;99.90;;;;;;5096818;28;21044;-74
2022/07/30 05:02:49;;;;;;;5.37;4.97;;;17.60;99.90;;;;;;5086586;28;20530;-74
2022/07/30 05:05:38;;;;;;;5.27;4.87;;;17.60;99.90;;;;;;5081198;28;20673;-75
2022/07/30 05:08:28;;;;;;;4.03;3.70;;;17.60;99.90;;;;;;5082779;28;20483;-76
2022/07/30 05:11:19;;;;;;;4.20;3.80;;;17.60;99.90;;;;;;5083905;28;20449;-74
2022/07/30 05:14:07;;;;;;;4.77;4.40;;;17.70;99.90;;;;;;5096859;28;20599;-74
2022/07/30 05:16:56;;;;;;;3.80;3.60;;;17.60;99.90;;;;;;5094963;28;20581;-75
2022/07/30 05:19:44;;;;;;;4.67;4.27;;;17.60;99.90;;;;;;5088573;28;20465;-76
2022/07/30 05:22:35;;;;;;;4.50;4.10;;;17.60;99.90;;;;;;5087488;28;20990;-74
2022/07/30 05:25:25;;;;;;;4.27;3.87;;;17.60;99.90;;;;;;5085134;28;20445;-74
2022/07/30 05:28:13;;;;;;;4.30;3.90;;;17.60;99.90;;;;;;5087426;28;20553;-74
2022/07/30 05:31:01;;;;;;;4.27;3.87;;;17.60;99.90;;;;;;5090257;28;20537;-75
2022/07/30 05:33:55;;;;;;;7.20;4.07;;;17.60;99.90;;;;;;5086191;28;20465;-74
2022/07/30 05:36:49;;;;;;;5.63;4.17;;;17.60;99.90;;;;;;5086709;28;20466;-75
2022/07/30 05:39:38;;;;;;;5.17;3.90;;;17.60;99.90;;;;;;5096244;28;20529;-74
2022/07/30 05:42:47;;;;;;;4.00;3.60;;;17.60;99.90;;;;;;5086426;28;20458;-75
2022/07/30 05:45:36;;;;;;;4.03;3.73;;;17.60;99.90;;;;;;5093340;28;20457;-74
2022/07/30 05:48:25;;;;;;;5.53;4.30;;;17.60;99.90;;;;;;5084095;28;20477;-74
2022/07/30 05:51:13;;;;;;;4.30;3.90;;;17.70;99.90;;;;;;5093388;28;20450;-74
2022/07/30 05:54:01;;;;;;;4.03;3.67;;;17.60;99.90;;;;;;5089165;28;20650;-74
2022/07/30 05:56:50;;;;;;;4.33;3.87;;;17.60;99.90;;;;;;5080945;28;20636;-74
2022/07/30 05:59:39;;;;;;;4.93;3.60;;;17.70;99.90;;;;;;5090717;28;20476;-73
2022/07/30 06:02:28;;;;;;;4.23;3.90;;;17.70;99.90;;;;;;5077874;28;21811;-73
2022/07/30 06:05:16;;;;;;;4.73;3.67;;;17.70;99.90;;;;;;5064392;28;20509;-73
2022/07/30 06:08:04;;;;;;;4.37;3.90;;;17.70;99.90;;;;;;5081249;28;20495;-74
2022/07/30 06:10:54;;;;;;;4.10;3.80;;;17.70;99.90;;;;;;5091031;28;20449;-74
2022/07/30 06:13:43;;;;;;;7.27;4.07;;;17.70;99.90;;;;;;5090092;28;20526;-73
2022/07/30 06:16:32;;;;;;;3.50;3.30;;;17.70;99.90;;;;;;5091331;28;20480;-74
2022/07/30 06:19:21;;;;;;;5.40;3.90;;;17.70;99.90;;;;;;5087899;28;20526;-73
2022/07/30 06:22:09;;;;;;;6.07;3.87;;;17.70;99.90;;;;;;5088309;28;20473;-75
2022/07/30 06:24:57;;;;;;;5.53;3.97;;;17.80;99.90;;;;;;5081527;28;20580;-75
2022/07/30 06:27:45;;;;;;;4.17;3.87;;;17.80;99.90;;;;;;5089834;28;20488;-74
2022/07/30 06:30:34;;;;;;;4.33;4.00;;;17.80;99.90;;;;;;5089255;28;20457;-76
2022/07/30 06:33:24;;;;;;;4.17;3.80;;;17.80;99.90;;;;;;5101181;28;20464;-73
2022/07/30 06:36:13;;;;;;;4.10;3.80;;;17.80;99.90;;;;;;5089502;28;20632;-73
2022/07/30 06:39:01;;;;;;;3.70;3.50;;;17.80;99.90;;;;;;5091739;28;20511;-72
2022/07/30 06:41:50;;;;;;;4.10;3.70;;;17.80;99.90;;;;;;5092279;28;20804;-74
2022/07/30 06:44:38;;;;;;;4.20;3.80;;;17.80;99.90;;;;;;5088650;28;20502;-73
2022/07/30 06:47:27;;;;;;;4.90;4.30;;;17.80;99.90;;;;;;5089539;28;20477;-73
2022/07/30 06:50:19;;;;;;;4.30;3.90;;;17.90;99.90;;;;;;5085374;28;20530;-74
2022/07/30 06:53:07;;;;;;;4.53;4.23;;;17.80;99.90;;;;;;5095683;28;20461;-73
2022/07/30 06:55:56;;;;;;;4.20;3.80;;;17.90;99.90;;;;;;5088381;28;20581;-76
2022/07/30 06:58:48;;;;;;;4.13;3.77;;;17.90;99.90;;;;;;5092038;28;20857;-74
2022/07/30 07:01:36;;;;;;;4.37;3.97;;;17.90;99.90;;;;;;5094284;28;20460;-74
2022/07/30 07:04:24;;;;;;;4.00;3.70;;;17.90;99.90;;;;;;5091625;28;20540;-74
2022/07/30 07:07:14;;;;;;;4.43;3.93;;;17.90;99.90;;;;;;5091848;28;20454;-74
2022/07/30 07:10:19;;;;;;;4.40;4.10;;;18.00;99.90;;;;;;5092380;28;20440;-75
2022/07/30 07:13:07;;;;;;;5.57;4.07;;;18.00;99.90;;;;;;5085713;28;20959;-74
2022/07/30 07:15:57;;;;;;;5.87;4.63;;;18.00;99.90;;;;;;5087036;28;20554;-74
2022/07/30 07:18:45;;;;;;;5.50;3.80;;;18.00;99.90;;;;;;5088970;28;20601;-74
2022/07/30 07:21:33;;;;;;;5.03;4.20;;;18.00;99.90;;;;;;5082235;28;20445;-74
2022/07/30 07:24:23;;;;;;;4.83;4.30;;;18.00;99.90;;;;;;5090588;28;21035;-78
2022/07/30 07:27:11;;;;;;;5.00;4.50;;;18.10;99.90;;;;;;5096539;28;20452;-73
2022/07/30 07:30:03;;;;;;;5.10;4.70;;;18.10;99.90;;;;;;5087281;28;20446;-74
2022/07/30 07:32:53;;;;;;;4.30;3.90;;;18.10;99.90;;;;;;5084571;28;20448;-74
2022/07/30 07:35:41;;;;;;;4.80;4.47;;;18.10;99.90;;;;;;5088401;28;20504;-74
2022/07/30 07:38:37;;;;;;;4.87;3.90;;;18.20;99.90;;;;;;5090989;28;22399;-75
2022/07/30 07:41:26;;;;;;;5.63;4.27;;;18.20;99.90;;;;;;5093573;28;20489;-75
2022/07/30 07:44:14;;;;;;;4.50;4.20;;;18.30;99.90;;;;;;5083668;28;20673;-74
2022/07/30 07:47:03;;;;;;;4.60;4.20;;;18.30;99.90;;;;;;5102664;28;20910;-75
2022/07/30 07:49:55;;;;;;;9.00;4.73;;;18.30;99.90;;;;;;5106987;22;20867;-74
2022/07/30 07:52:43;;;;;;;4.67;4.27;;;18.40;99.90;;;;;;5102854;28;20477;-74
2022/07/30 07:55:32;;;;;;;4.43;3.87;;;18.40;99.90;;;;;;5101289;28;20552;-75
2022/07/30 07:58:22;;;;;;;4.30;3.87;;;18.40;99.90;;;;;;5107580;27;20461;-74
2022/07/30 08:01:13;;;;;;;4.43;4.03;;;18.50;99.90;;;;;;5097431;28;20531;-74
2022/07/30 08:04:03;;;;;;;5.03;4.60;;;18.50;99.90;;;;;;5101022;27;20909;-74
2022/07/30 08:06:57;;;;;;;4.43;3.93;;;18.60;99.90;;;;;;5109526;27;20452;-74
2022/07/30 08:09:46;;;;;;;4.73;4.33;;;18.60;99.90;;;;;;5108384;27;20498;-74
2022/07/30 08:12:35;;;;;;;5.03;4.57;;;18.70;99.90;;;;;;5100945;27;20554;-74
2022/07/30 08:15:24;;;;;;;6.00;4.57;;;18.70;99.90;;;;;;5110820;27;20568;-74
2022/07/30 08:18:13;;;;;;;4.53;4.10;;;18.70;99.90;;;;;;5103155;28;21030;-74
2022/07/30 08:21:01;;;;;;;5.77;4.20;;;18.80;99.90;;;;;;5104836;27;20579;-75
2022/07/30 08:23:49;;;;;;;5.13;4.67;;;18.80;99.90;;;;;;5101089;27;20460;-74
2022/07/30 08:26:37;;;;;;;4.90;4.40;;;18.90;99.90;;;;;;5105564;28;20714;-74
2022/07/30 08:29:25;;;;;;;4.53;4.13;;;18.90;99.90;;;;;;5093383;28;20998;-74
2022/07/30 08:32:15;;;;;;;5.23;4.73;;;18.90;99.90;;;;;;5104534;28;20443;-75
2022/07/30 08:35:04;;;;;;;5.50;4.67;;;19.00;99.90;;;;;;5097695;27;20446;-74
2022/07/30 08:37:54;;;;;;;5.40;4.90;;;19.10;99.90;;;;;;5094662;28;20599;-74
2022/07/30 08:40:42;;;;;;;5.20;4.80;;;19.20;99.90;;;;;;5109770;27;20555;-74
2022/07/30 08:43:35;;;;;;;5.77;4.87;;;19.20;99.90;;;;;;5103066;28;20453;-74
2022/07/30 08:46:29;;;;;;;4.40;4.00;;;19.20;99.90;;;;;;5099824;27;20818;-75
2022/07/30 08:49:19;;;;;;;6.80;5.57;;;19.30;99.90;;;;;;5103049;27;20555;-75
2022/07/30 08:52:08;;;;;;;7.50;5.17;;;19.30;99.90;;;;;;5097259;28;20632;-74
2022/07/30 08:54:56;;;;;;;5.33;4.87;;;19.40;99.90;;;;;;5104492;27;20444;-74
2022/07/30 08:57:45;;;;;;;6.37;4.73;;;19.40;99.90;;;;;;5111464;27;20559;-75
2022/07/30 09:00:33;;;;;;;4.87;4.47;;;19.50;99.90;;;;;;5105426;28;20994;-75
2022/07/30 09:03:21;;;;;;;5.80;5.20;;;19.50;99.90;;;;;;5109325;28;20906;-74
2022/07/30 09:06:11;;;;;;;5.63;5.00;;;19.60;99.90;;;;;;5100960;27;20487;-74
2022/07/30 09:08:59;;;;;;;5.00;4.50;;;19.60;99.90;;;;;;5099570;28;20587;-74
2022/07/30 09:11:48;;;;;;;5.90;5.03;;;19.70;99.90;;;;;;5114431;27;20459;-74
2022/07/30 09:14:36;;;;;;;4.97;4.57;;;19.70;99.90;;;;;;5094638;28;20533;-74
2022/07/30 09:17:24;;;;;;;5.07;4.60;;;19.80;99.90;;;;;;5102496;28;20983;-74
2022/07/30 09:20:19;;;;;;;4.23;3.87;;;19.80;99.90;;;;;;5099677;27;20478;-74
2022/07/30 09:23:09;;;;;;;4.67;4.10;;;19.90;99.90;;;;;;5098321;28;20452;-74
2022/07/30 09:25:59;;;;;;;5.10;4.70;;;20.00;99.90;;;;;;5104516;28;20594;-74
2022/07/30 09:28:48;;;;;;;4.93;4.43;;;20.00;99.90;;;;;;5103911;27;20470;-75
2022/07/30 09:31:53;;;;;;;5.40;4.90;;;20.00;99.90;;;;;;5113694;27;20535;-74
2022/07/30 09:34:41;;;;;;;4.20;3.90;;;20.10;99.90;;;;;;5105376;28;20467;-74
2022/07/30 09:37:29;;;;;;;5.70;4.70;;;20.10;99.90;;;;;;5106689;28;20920;-75
2022/07/30 09:40:19;;;;;;;6.37;4.93;;;20.10;99.90;;;;;;5101878;27;20492;-74
2022/07/30 09:43:19;;;;;;;5.30;4.50;;;20.10;99.90;;;;;;5103637;28;20448;-74
2022/07/30 09:46:15;;;;;;;4.70;4.30;;;20.20;99.90;;;;;;5097671;27;20455;-72
2022/07/30 09:49:15;;;;;;;4.90;4.50;;;20.20;99.90;;;;;;5107914;27;20525;-74
2022/07/30 09:52:03;;;;;;;5.00;4.50;;;20.30;99.90;;;;;;5106070;28;20457;-74
2022/07/30 09:54:53;;;;;;;4.90;4.50;;;20.40;99.90;;;;;;5102905;27;20986;-74
2022/07/30 09:57:56;;;;;;;5.27;4.77;;;20.50;99.90;;;;;;5102145;27;20475;-74
2022/07/30 10:00:46;;;;;;;4.77;4.47;;;20.60;99.90;;;;;;5110310;27;20450;-75
2022/07/30 10:03:41;;;;;;;4.97;4.13;;;20.60;99.90;;;;;;5103700;28;20471;-74
2022/07/30 10:06:33;;;;;;;5.43;4.70;;;20.70;99.90;;;;;;5102911;27;20993;-72
2022/07/30 10:09:26;;;;;;;4.80;4.23;;;20.80;99.90;;;;;;5093769;28;20551;-74
2022/07/30 10:12:15;;;;;;;4.70;4.30;;;20.80;99.90;;;;;;5104449;27;20440;-74
2022/07/30 10:15:06;;;;;;;4.60;4.20;;;20.80;99.90;;;;;;5104686;27;20461;-75
2022/07/30 10:17:55;;;;;;;6.07;5.13;;;20.80;99.90;;;;;;5095564;28;20553;-73
2022/07/30 10:20:44;;;;;;;4.83;4.43;;;20.80;99.90;;;;;;5106333;28;20448;-73
2022/07/30 10:23:34;;;;;;;5.30;4.60;;;20.90;99.90;;;;;;5111037;27;20464;-73
2022/07/30 10:26:23;;;;;;;5.17;4.67;;;20.90;99.90;;;;;;5098259;28;20527;-73
2022/07/30 10:29:15;;;;;;;4.53;4.23;;;20.90;99.90;;;;;;5093093;28;20546;-73
2022/07/30 10:32:05;;;;;;;4.67;4.37;;;21.00;99.90;;;;;;5100795;27;20443;-73
2022/07/30 10:34:56;;;;;;;5.33;4.93;;;21.00;99.90;;;;;;5101139;28;20456;-73
2022/07/30 10:37:49;;;;;;;4.33;4.03;;;21.00;99.90;;;;;;5102709;27;20476;-73
2022/07/30 10:40:46;;;;;;;4.70;4.30;;;21.10;99.90;;;;;;5101022;27;22654;-73
2022/07/30 10:44:02;;;;;;;4.97;4.53;;;21.10;99.90;;;;;;5097870;28;20453;-73
2022/07/30 10:47:00;;;;;;;5.07;4.50;;;21.20;99.90;;;;;;5100645;27;20528;-73
2022/07/30 10:50:09;;;;;;;6.20;5.60;;;21.30;99.90;;;;;;5093943;28;20487;-72
2022/07/30 10:53:00;;;;;;;5.53;5.10;;;21.30;99.90;;;;;;5099420;28;21004;-72
2022/07/30 10:56:17;;;;;;;5.23;4.73;;;21.30;99.90;;;;;;5100886;28;20901;-75
2022/07/30 10:59:12;;;;;;;5.17;4.77;;;21.30;99.90;;;;;;5103684;28;20468;-73
2022/07/30 11:02:09;;;;;;;6.50;5.50;;;21.30;99.90;;;;;;5109580;28;20450;-73
2022/07/30 11:05:27;;;;;;;5.03;4.63;;;21.30;99.90;;;;;;5100921;28;20452;-73
2022/07/30 11:08:35;;;;;;;6.97;5.07;;;21.40;99.90;;;;;;5100746;28;20592;-73
2022/07/30 11:11:43;;;;;;;5.53;5.13;;;21.40;99.90;;;;;;5100709;28;20920;-73
2022/07/30 11:14:58;;;;;;;5.73;5.27;;;21.40;99.90;;;;;;5106410;28;20446;-73
2022/07/30 11:18:08;;;;;;;4.33;4.03;;;21.50;99.90;;;;;;5101226;28;20529;-73
2022/07/30 11:21:19;;;;;;;7.17;4.60;;;21.60;99.90;;;;;;5099935;27;20453;-73
2022/07/30 11:24:42;;;;;;;5.37;4.90;;;21.60;99.90;;;;;;5102929;28;20456;-73
2022/07/30 11:27:38;;;;;;;5.33;4.83;;;21.70;99.90;;;;;;5112004;27;20858;-73
2022/07/30 11:30:34;;;;;;;5.70;5.17;;;21.70;99.90;;;;;;5100374;27;20470;-73
2022/07/30 11:33:24;;;;;;;4.73;4.33;;;21.80;99.90;;;;;;5104968;28;20470;-73
2022/07/30 11:36:21;;;;;;;5.97;5.03;;;21.80;99.90;;;;;;5097003;27;20440;-73
2022/07/30 11:39:11;;;;;;;5.20;4.70;;;21.80;99.90;;;;;;5107358;28;20482;-73
2022/07/30 11:42:24;;;;;;;5.23;4.73;;;21.90;99.90;;;;;;5105080;27;20496;-73
2022/07/30 11:45:31;;;;;;;5.90;4.43;;;22.00;99.90;;;;;;5104859;28;20428;-73
2022/07/30 11:48:20;;;;;;;7.77;4.50;;;22.10;99.90;;;;;;5100030;28;20532;-73
2022/07/30 11:51:09;;;;;;;6.77;5.50;;;22.20;99.90;;;;;;5099447;27;20479;-73
2022/07/30 11:54:03;;;;;;;6.93;4.77;;;22.30;99.90;;;;;;5098579;28;21086;-73
2022/07/30 11:56:53;;;;;;;5.40;4.73;;;22.40;99.90;;;;;;5094559;27;20448;-73
2022/07/30 11:59:53;;;;;;;4.53;4.13;;;22.50;99.90;;;;;;5102809;27;21061;-73
2022/07/30 12:02:42;;;;;;;4.00;3.70;;;22.60;99.90;;;;;;5100175;28;20539;-73
2022/07/30 12:05:30;;;;;;;4.63;4.17;;;22.70;99.90;;;;;;5101882;27;20658;-73
2022/07/30 12:08:21;;;;;;;4.83;4.43;;;22.80;99.90;;;;;;5101872;27;20451;-73
2022/07/30 12:11:24;;;;;;;5.70;4.23;;;23.00;99.90;;;;;;5100506;27;20446;-73
2022/07/30 12:14:13;;;;;;;4.20;3.80;;;23.10;99.90;;;;;;5105552;27;20475;-73
2022/07/30 12:17:01;;;;;;;4.47;4.07;;;23.30;99.90;;;;;;5106566;27;20597;-73
2022/07/30 12:19:50;;;;;;;4.53;4.13;;;23.50;99.90;;;;;;5105829;27;20794;-73
2022/07/30 12:22:38;;;;;;;4.87;4.40;;;23.60;99.90;;;;;;5095347;28;20575;-73
2022/07/30 12:25:26;;;;;;;4.10;3.80;;;23.90;99.90;;;;;;5100661;27;20447;-73
2022/07/30 12:28:22;;;;;;;4.50;4.20;;;24.10;99.90;;;;;;5102514;27;20928;-73
2022/07/30 12:31:14;;;;;;;4.80;4.40;;;24.30;99.90;;;;;;5103904;28;20519;-74
2022/07/30 12:34:02;;;;;;;5.67;4.30;;;24.50;99.90;;;;;;5107231;27;20946;-73
2022/07/30 12:36:51;;;;;;;5.63;5.03;;;24.60;99.90;;;;;;5102086;28;20447;-73
2022/07/30 12:39:42;;;;;;;6.07;4.80;;;24.70;99.90;;;;;;5103140;27;21155;-73
2022/07/30 12:42:33;;;;;;;5.13;4.73;;;24.80;99.90;;;;;;5102788;27;20535;-74
2022/07/30 12:45:33;;;;;;;5.43;4.60;;;24.90;99.90;;;;;;5098507;28;20972;-73
2022/07/30 12:48:53;;;;;;;5.43;4.70;;;25.00;99.90;;;;;;5106633;27;20471;-73
2022/07/30 12:51:51;;;;;;;4.33;4.03;;;25.00;99.90;;;;;;5105207;27;20444;-73
2022/07/30 12:55:00;;;;;;;4.57;4.17;;;25.00;99.90;;;;;;5096777;28;20536;-73
2022/07/30 12:57:55;;;;;;;6.47;4.50;;;25.10;99.90;;;;;;5109722;27;20502;-73
2022/07/30 13:00:51;;;;;;;5.10;4.63;;;25.10;99.90;;;;;;5106125;27;20548;-73
2022/07/30 13:03:40;;;;;;;9.23;4.60;;;25.20;99.90;;;;;;5104706;27;20462;-73
2022/07/30 13:06:28;;;;;;;5.00;4.37;;;25.20;99.90;;;;;;5102652;27;20589;-73
2022/07/30 13:09:19;;;;;;;4.47;4.17;;;25.30;99.90;;;;;;5103159;27;20468;-73
2022/07/30 13:12:12;;;;;;;5.07;4.60;;;25.50;99.90;;;;;;5102081;27;20478;-73
2022/07/30 13:15:00;;;;;;;4.90;4.50;;;25.40;99.90;;;;;;5103502;27;20492;-73
2022/07/30 13:17:50;;;;;;;5.20;4.87;;;25.40;99.90;;;;;;5094069;27;20460;-73
2022/07/30 13:20:43;;;;;;;5.20;4.70;;;25.50;99.90;;;;;;5101374;28;20526;-73
2022/07/30 13:23:32;;;;;;;5.93;4.53;;;25.50;99.90;;;;;;5098830;28;20467;-73
2022/07/30 13:26:20;;;;;;;4.70;4.30;;;25.70;99.90;;;;;;5093833;27;20555;-74
2022/07/30 13:29:09;;;;;;;5.17;4.67;;;25.80;99.90;;;;;;5102126;28;20575;-73
2022/07/30 13:31:57;;;;;;;4.67;4.20;;;25.80;99.90;;;;;;5095326;27;20594;-73
2022/07/30 13:34:47;;;;;;;4.83;4.50;;;25.90;99.90;;;;;;5108659;27;20976;-73
2022/07/30 13:37:36;;;;;;;4.53;4.20;;;26.10;99.90;;;;;;5099937;28;20448;-73
2022/07/30 13:40:25;;;;;;;6.20;5.57;;;26.20;99.90;;;;;;5107170;27;20545;-73
2022/07/30 13:43:13;;;;;;;5.03;4.63;;;26.30;99.90;;;;;;5101499;27;20489;-73
2022/07/30 13:46:02;;;;;;;4.50;4.10;;;26.30;99.90;;;;;;5100647;28;20486;-73
2022/07/30 13:48:51;;;;;;;4.40;4.00;;;26.50;99.90;;;;;;5102919;27;20469;-73
2022/07/30 13:51:43;;;;;;;5.73;5.20;;;26.80;99.90;;;;;;5097302;22;20501;-72
2022/07/30 13:54:32;;;;;;;5.60;4.87;;;26.90;99.90;;;;;;5064573;28;20516;-71
2022/07/30 13:57:20;;;;;;;5.17;4.63;;;27.00;99.90;;;;;;5065579;28;20535;-73
2022/07/30 14:00:10;;;;;;;6.20;4.33;;;27.10;99.90;;;;;;5058515;28;20474;-71
2022/07/30 14:02:59;;;;;;;5.13;4.73;;;27.20;99.90;;;;;;5043015;28;20506;-72
2022/07/30 14:05:48;;;;;;;5.13;4.70;;;27.40;99.90;;;;;;5048480;28;20474;-72
2022/07/30 14:08:37;;;;;;;4.83;4.43;;;27.40;99.90;;;;;;5045629;28;20533;-72
2022/07/30 14:11:25;;;;;;;5.13;4.73;;;27.40;99.90;;;;;;5044450;28;20852;-72
2022/07/30 14:14:14;;;;;;;4.63;4.13;;;27.30;99.90;;;;;;5039199;28;20596;-72
2022/07/30 14:17:02;;;;;;;4.80;4.37;;;27.20;99.90;;;;;;5042960;28;20454;-72
2022/07/30 14:19:53;;;;;;;4.63;4.23;;;27.20;99.90;;;;;;5043569;28;20477;-72
2022/07/30 14:22:41;;;;;;;4.90;4.03;;;27.20;99.90;;;;;;5039630;28;20510;-73
2022/07/30 14:25:34;;;;;;;5.13;4.73;;;27.20;99.90;;;;;;5042230;28;20861;-72
2022/07/30 14:28:22;;;;;;;4.90;4.40;;;27.20;99.90;;;;;;5044474;28;20450;-73
2022/07/30 14:31:10;;;;;;;5.63;5.10;;;27.00;99.90;;;;;;5043199;28;20554;-73
2022/07/30 14:33:59;;;;;;;4.57;4.23;;;26.90;99.90;;;;;;5035515;28;20443;-72
2022/07/30 14:36:47;;;;;;;5.70;4.20;;;26.90;99.90;;;;;;5042781;28;20992;-72
2022/07/30 14:39:35;;;;;;;5.50;5.10;;;26.90;99.90;;;;;;5042803;28;20566;-72
2022/07/30 14:42:25;;;;;;;5.13;4.50;;;26.80;99.90;;;;;;5039463;28;20474;-73
2022/07/30 14:45:13;;;;;;;4.90;4.03;;;26.70;99.90;;;;;;5045865;28;21072;-73
2022/07/30 14:48:01;;;;;;;7.67;4.83;;;26.60;99.90;;;;;;5041081;28;20544;-72
2022/07/30 14:50:50;;;;;;;5.10;4.70;;;26.60;99.90;;;;;;5045288;28;20585;-72
2022/07/30 14:53:58;;;;;;;5.23;4.37;;;26.60;99.90;;;;;;5041558;28;20529;-72
2022/07/30 14:56:47;;;;;;;5.20;4.73;;;26.50;99.90;;;;;;5038334;28;20596;-73